Jacksonville Naval Air Station Jacksonville US
ICAO: KNIP
IATA: NIP
Category: Medium
Scheduled Services: No

Elevation: 21 ft
TransAlt. 18000 ft.

Airport Communications:
APP/DEP:123.8
ATIS:28.1
CLNC DEL:134.775
GND:128.6
ATCOM:672.3
NAVY JAX OPS:31.02
PMSV METRO:34.35
TWR:120

KNIP Zoom In..

If you have problems with the map follow the link
https://www.worldairports.se/pages/airport.php?
ICAO=KNIP

Runways:

(A) RW 10 length 8002 ft width 200 ft
---- / hdg 95

(B) RW 14 length 5980 ft width 200 ft
---- / hdg 141

(C) RW 28 length 8002 ft width 200 ft
---- / hdg 275

(D) RW 32 length 5980 ft width 200 ft
---- / hdg 321

Location; KNIP
Day. 22 / Time. 13.53 Zulu
* Altimeter: 30.22
* Temperature: 04° c. 39.2°f.
* Wind from: 340° Speed 16 kn.
Dewpoint: -06° c.
Visibility: 10 Statute Miles.
Clouds: Few 3000 ft.
Clouds: Few 25000 ft.

KNIP 221353Z 34016KT 10SM FEW030 FEW250 04/M06 A3022 RMK SLP228 T00391061


Wind From 340°
Speed 16 kn.

 
 
jpsmedia worldairports.se 2020   terms of use